sensor_id;sensor_type;location;lat;lon;timestamp;temperature;humidity
18888;DHT22;9576;47.792;9.628;2023-11-21T00:02:29;8.50;99.90
18888;DHT22;9576;47.792;9.628;2023-11-21T00:05:33;8.50;99.90
18888;DHT22;9576;47.792;9.628;2023-11-21T00:08:35;8.50;99.90
18888;DHT22;9576;47.792;9.628;2023-11-21T00:11:37;8.50;99.90
18888;DHT22;9576;47.792;9.628;2023-11-21T00:14:39;8.60;99.90
18888;DHT22;9576;47.792;9.628;2023-11-21T00:17:41;8.50;99.90
18888;DHT22;9576;47.792;9.628;2023-11-21T00:20:45;8.40;99.90
18888;DHT22;9576;47.792;9.628;2023-11-21T00:23:47;8.30;99.90
18888;DHT22;9576;47.792;9.628;2023-11-21T00:26:48;8.10;99.90
18888;DHT22;9576;47.792;9.628;2023-11-21T00:29:50;8.10;99.90
18888;DHT22;9576;47.792;9.628;2023-11-21T00:32:52;8.00;99.90
18888;DHT22;9576;47.792;9.628;2023-11-21T00:35:56;8.00;99.90
18888;DHT22;9576;47.792;9.628;2023-11-21T00:38:58;7.90;99.90
18888;DHT22;9576;47.792;9.628;2023-11-21T00:42:00;7.80;99.90
18888;DHT22;9576;47.792;9.628;2023-11-21T00:45:02;7.80;99.90
18888;DHT22;9576;47.792;9.628;2023-11-21T00:48:05;7.80;99.90
18888;DHT22;9576;47.792;9.628;2023-11-21T00:51:10;7.70;99.90
18888;DHT22;9576;47.792;9.628;2023-11-21T00:54:12;7.70;99.90
18888;DHT22;9576;47.792;9.628;2023-11-21T00:57:13;7.60;99.90
18888;DHT22;9576;47.792;9.628;2023-11-21T01:00:16;7.60;99.90
18888;DHT22;9576;47.792;9.628;2023-11-21T01:03:18;7.60;99.90
18888;DHT22;9576;47.792;9.628;2023-11-21T01:06:21;7.60;99.90
18888;DHT22;9576;47.792;9.628;2023-11-21T01:09:23;7.50;99.90
18888;DHT22;9576;47.792;9.628;2023-11-21T01:12:26;7.50;99.90
18888;DHT22;9576;47.792;9.628;2023-11-21T01:15:28;7.40;99.90
18888;DHT22;9576;47.792;9.628;2023-11-21T01:18:29;7.40;99.90
18888;DHT22;9576;47.792;9.628;2023-11-21T01:21:33;7.40;99.90
18888;DHT22;9576;47.792;9.628;2023-11-21T01:24:34;7.30;99.90
18888;DHT22;9576;47.792;9.628;2023-11-21T01:27:36;7.30;99.90
18888;DHT22;9576;47.792;9.628;2023-11-21T01:30:38;7.30;99.90
18888;DHT22;9576;47.792;9.628;2023-11-21T01:33:40;7.30;99.90
18888;DHT22;9576;47.792;9.628;2023-11-21T01:36:43;7.20;99.90
18888;DHT22;9576;47.792;9.628;2023-11-21T01:39:46;7.30;99.90
18888;DHT22;9576;47.792;9.628;2023-11-21T01:42:48;7.30;99.90
18888;DHT22;9576;47.792;9.628;2023-11-21T01:45:50;7.40;99.90
18888;DHT22;9576;47.792;9.628;2023-11-21T01:48:52;7.40;99.90
18888;DHT22;9576;47.792;9.628;2023-11-21T01:51:56;7.50;99.90
18888;DHT22;9576;47.792;9.628;2023-11-21T01:54:57;7.50;99.90
18888;DHT22;9576;47.792;9.628;2023-11-21T01:58:00;7.50;99.90
18888;DHT22;9576;47.792;9.628;2023-11-21T02:01:02;7.40;99.90
18888;DHT22;9576;47.792;9.628;2023-11-21T02:04:04;7.40;99.90
18888;DHT22;9576;47.792;9.628;2023-11-21T02:07:07;7.30;99.90
18888;DHT22;9576;47.792;9.628;2023-11-21T02:10:09;7.30;99.90
18888;DHT22;9576;47.792;9.628;2023-11-21T02:13:14;7.30;99.90
18888;DHT22;9576;47.792;9.628;2023-11-21T02:16:16;7.30;99.90
18888;DHT22;9576;47.792;9.628;2023-11-21T02:19:18;7.20;99.90
18888;DHT22;9576;47.792;9.628;2023-11-21T02:22:24;7.20;99.90
18888;DHT22;9576;47.792;9.628;2023-11-21T02:25:29;7.30;99.90
18888;DHT22;9576;47.792;9.628;2023-11-21T02:28:32;7.30;99.90
18888;DHT22;9576;47.792;9.628;2023-11-21T02:31:33;7.30;99.90
18888;DHT22;9576;47.792;9.628;2023-11-21T02:34:35;7.30;99.90
18888;DHT22;9576;47.792;9.628;2023-11-21T02:37:38;7.30;99.90
18888;DHT22;9576;47.792;9.628;2023-11-21T02:40:42;7.30;99.90
18888;DHT22;9576;47.792;9.628;2023-11-21T02:43:44;7.30;99.90
18888;DHT22;9576;47.792;9.628;2023-11-21T02:46:46;7.30;99.90
18888;DHT22;9576;47.792;9.628;2023-11-21T02:49:48;7.30;99.90
18888;DHT22;9576;47.792;9.628;2023-11-21T02:52:49;7.30;99.90
18888;DHT22;9576;47.792;9.628;2023-11-21T02:55:53;7.30;99.90
18888;DHT22;9576;47.792;9.628;2023-11-21T02:58:55;7.30;99.90
18888;DHT22;9576;47.792;9.628;2023-11-21T03:01:57;7.30;99.90
18888;DHT22;9576;47.792;9.628;2023-11-21T03:04:59;7.30;99.90
18888;DHT22;9576;47.792;9.628;2023-11-21T03:08:01;7.30;99.90
18888;DHT22;9576;47.792;9.628;2023-11-21T03:11:04;7.30;99.90
18888;DHT22;9576;47.792;9.628;2023-11-21T03:14:07;7.20;99.90
18888;DHT22;9576;47.792;9.628;2023-11-21T03:17:08;7.20;99.90
18888;DHT22;9576;47.792;9.628;2023-11-21T03:20:11;7.10;99.90
18888;DHT22;9576;47.792;9.628;2023-11-21T03:23:14;7.10;99.90
18888;DHT22;9576;47.792;9.628;2023-11-21T03:26:17;7.00;99.90
18888;DHT22;9576;47.792;9.628;2023-11-21T03:29:19;7.00;99.90
18888;DHT22;9576;47.792;9.628;2023-11-21T03:32:21;7.00;99.90
18888;DHT22;9576;47.792;9.628;2023-11-21T03:35:23;7.00;99.90
18888;DHT22;9576;47.792;9.628;2023-11-21T03:38:25;7.00;99.90
18888;DHT22;9576;47.792;9.628;2023-11-21T03:41:28;7.00;99.90
18888;DHT22;9576;47.792;9.628;2023-11-21T03:44:30;6.90;99.90
18888;DHT22;9576;47.792;9.628;2023-11-21T03:47:31;6.90;99.90
18888;DHT22;9576;47.792;9.628;2023-11-21T03:50:33;6.90;99.90
18888;DHT22;9576;47.792;9.628;2023-11-21T03:53:35;6.80;99.90
18888;DHT22;9576;47.792;9.628;2023-11-21T03:56:38;6.70;99.90
18888;DHT22;9576;47.792;9.628;2023-11-21T03:59:40;6.70;99.90
18888;DHT22;9576;47.792;9.628;2023-11-21T04:02:42;6.70;99.90
18888;DHT22;9576;47.792;9.628;2023-11-21T04:05:44;6.60;99.90
18888;DHT22;9576;47.792;9.628;2023-11-21T04:08:47;6.60;99.90
18888;DHT22;9576;47.792;9.628;2023-11-21T04:11:50;6.60;99.90
18888;DHT22;9576;47.792;9.628;2023-11-21T04:14:52;6.50;99.90
18888;DHT22;9576;47.792;9.628;2023-11-21T04:17:54;6.50;99.90
18888;DHT22;9576;47.792;9.628;2023-11-21T04:20:57;6.50;99.90
18888;DHT22;9576;47.792;9.628;2023-11-21T04:23:58;6.40;99.90
18888;DHT22;9576;47.792;9.628;2023-11-21T04:27:02;6.30;99.90
18888;DHT22;9576;47.792;9.628;2023-11-21T04:30:04;6.30;99.90
18888;DHT22;9576;47.792;9.628;2023-11-21T04:33:06;6.30;99.90
18888;DHT22;9576;47.792;9.628;2023-11-21T04:36:08;6.30;99.90
18888;DHT22;9576;47.792;9.628;2023-11-21T04:39:10;6.40;99.90
18888;DHT22;9576;47.792;9.628;2023-11-21T04:42:14;6.30;99.90
18888;DHT22;9576;47.792;9.628;2023-11-21T04:45:16;6.40;99.90
18888;DHT22;9576;47.792;9.628;2023-11-21T04:48:18;6.40;99.90
18888;DHT22;9576;47.792;9.628;2023-11-21T04:51:19;6.40;99.90
18888;DHT22;9576;47.792;9.628;2023-11-21T04:54:21;6.40;99.90
18888;DHT22;9576;47.792;9.628;2023-11-21T04:57:25;6.40;99.90
18888;DHT22;9576;47.792;9.628;2023-11-21T05:00:28;6.40;99.90
18888;DHT22;9576;47.792;9.628;2023-11-21T05:03:30;6.30;99.90
18888;DHT22;9576;47.792;9.628;2023-11-21T05:06:32;6.40;99.90
18888;DHT22;9576;47.792;9.628;2023-11-21T05:09:34;6.30;99.90
18888;DHT22;9576;47.792;9.628;2023-11-21T05:12:38;6.30;99.90
18888;DHT22;9576;47.792;9.628;2023-11-21T05:15:39;6.30;99.90
18888;DHT22;9576;47.792;9.628;2023-11-21T05:18:42;6.40;99.90
18888;DHT22;9576;47.792;9.628;2023-11-21T05:21:43;6.40;99.90
18888;DHT22;9576;47.792;9.628;2023-11-21T05:24:46;6.30;99.90
18888;DHT22;9576;47.792;9.628;2023-11-21T05:27:50;6.30;99.90
18888;DHT22;9576;47.792;9.628;2023-11-21T05:30:51;6.30;99.90
18888;DHT22;9576;47.792;9.628;2023-11-21T05:33:53;6.30;99.90
18888;DHT22;9576;47.792;9.628;2023-11-21T05:36:55;6.20;99.90
18888;DHT22;9576;47.792;9.628;2023-11-21T05:39:58;6.10;99.90
18888;DHT22;9576;47.792;9.628;2023-11-21T05:43:06;6.10;99.90
18888;DHT22;9576;47.792;9.628;2023-11-21T05:46:08;6.10;99.90
18888;DHT22;9576;47.792;9.628;2023-11-21T05:49:10;6.10;99.90
18888;DHT22;9576;47.792;9.628;2023-11-21T05:52:12;6.20;99.90
18888;DHT22;9576;47.792;9.628;2023-11-21T05:55:14;6.20;99.90
18888;DHT22;9576;47.792;9.628;2023-11-21T05:58:17;6.20;99.90
18888;DHT22;9576;47.792;9.628;2023-11-21T06:01:19;6.20;99.90
18888;DHT22;9576;47.792;9.628;2023-11-21T06:04:21;6.20;99.90
18888;DHT22;9576;47.792;9.628;2023-11-21T06:07:24;6.30;99.90
18888;DHT22;9576;47.792;9.628;2023-11-21T06:10:26;6.30;99.90
18888;DHT22;9576;47.792;9.628;2023-11-21T06:13:30;6.30;99.90
18888;DHT22;9576;47.792;9.628;2023-11-21T06:16:31;6.30;99.90
18888;DHT22;9576;47.792;9.628;2023-11-21T06:19:33;6.40;99.90
18888;DHT22;9576;47.792;9.628;2023-11-21T06:22:35;6.40;99.90
18888;DHT22;9576;47.792;9.628;2023-11-21T06:25:37;6.40;99.90
18888;DHT22;9576;47.792;9.628;2023-11-21T06:28:41;6.40;99.90
18888;DHT22;9576;47.792;9.628;2023-11-21T06:31:42;6.40;99.90
18888;DHT22;9576;47.792;9.628;2023-11-21T06:34:44;6.40;99.90
18888;DHT22;9576;47.792;9.628;2023-11-21T06:37:46;6.50;99.90
18888;DHT22;9576;47.792;9.628;2023-11-21T06:40:48;6.50;99.90
18888;DHT22;9576;47.792;9.628;2023-11-21T06:43:52;6.50;99.90
18888;DHT22;9576;47.792;9.628;2023-11-21T06:46:53;6.50;99.90
18888;DHT22;9576;47.792;9.628;2023-11-21T06:49:55;6.50;99.90
18888;DHT22;9576;47.792;9.628;2023-11-21T06:52:57;6.60;99.90
18888;DHT22;9576;47.792;9.628;2023-11-21T06:55:59;6.60;99.90
18888;DHT22;9576;47.792;9.628;2023-11-21T06:59:02;6.60;99.90
18888;DHT22;9576;47.792;9.628;2023-11-21T07:02:06;6.70;99.90
18888;DHT22;9576;47.792;9.628;2023-11-21T07:05:08;6.70;99.90
18888;DHT22;9576;47.792;9.628;2023-11-21T07:08:09;6.70;99.90
18888;DHT22;9576;47.792;9.628;2023-11-21T07:11:13;6.80;99.90
18888;DHT22;9576;47.792;9.628;2023-11-21T07:14:16;6.80;99.90
18888;DHT22;9576;47.792;9.628;2023-11-21T07:17:19;6.80;99.90
18888;DHT22;9576;47.792;9.628;2023-11-21T07:20:23;6.80;99.90
18888;DHT22;9576;47.792;9.628;2023-11-21T07:23:25;6.80;99.90
18888;DHT22;9576;47.792;9.628;2023-11-21T07:26:27;6.90;99.90
18888;DHT22;9576;47.792;9.628;2023-11-21T07:29:30;6.90;99.90
18888;DHT22;9576;47.792;9.628;2023-11-21T07:32:33;6.90;99.90
18888;DHT22;9576;47.792;9.628;2023-11-21T07:35:35;6.90;99.90
18888;DHT22;9576;47.792;9.628;2023-11-21T07:38:37;6.80;99.90
18888;DHT22;9576;47.792;9.628;2023-11-21T07:41:39;6.80;99.90
18888;DHT22;9576;47.792;9.628;2023-11-21T07:44:46;6.90;99.90
18888;DHT22;9576;47.792;9.628;2023-11-21T07:47:48;6.80;99.90
18888;DHT22;9576;47.792;9.628;2023-11-21T07:50:50;6.80;99.90
18888;DHT22;9576;47.792;9.628;2023-11-21T07:53:52;6.90;99.90
18888;DHT22;9576;47.792;9.628;2023-11-21T07:56:54;7.00;99.90
18888;DHT22;9576;47.792;9.628;2023-11-21T07:59:58;7.00;99.90
18888;DHT22;9576;47.792;9.628;2023-11-21T08:03:00;7.00;99.90
18888;DHT22;9576;47.792;9.628;2023-11-21T08:06:02;7.10;99.90
18888;DHT22;9576;47.792;9.628;2023-11-21T08:09:06;7.10;99.90
18888;DHT22;9576;47.792;9.628;2023-11-21T08:12:08;7.20;99.90
18888;DHT22;9576;47.792;9.628;2023-11-21T08:15:12;7.20;99.90
18888;DHT22;9576;47.792;9.628;2023-11-21T08:18:14;7.20;99.90
18888;DHT22;9576;47.792;9.628;2023-11-21T08:21:17;7.20;99.90
18888;DHT22;9576;47.792;9.628;2023-11-21T08:24:20;7.40;99.90
18888;DHT22;9576;47.792;9.628;2023-11-21T08:27:21;7.40;99.90
18888;DHT22;9576;47.792;9.628;2023-11-21T08:30:25;7.40;99.90
18888;DHT22;9576;47.792;9.628;2023-11-21T08:33:30;7.40;99.90
18888;DHT22;9576;47.792;9.628;2023-11-21T08:36:31;7.40;99.90
18888;DHT22;9576;47.792;9.628;2023-11-21T08:39:33;7.40;99.90
18888;DHT22;9576;47.792;9.628;2023-11-21T08:42:35;7.40;99.90
18888;DHT22;9576;47.792;9.628;2023-11-21T08:45:39;7.40;99.90
18888;DHT22;9576;47.792;9.628;2023-11-21T08:48:41;7.40;99.90
18888;DHT22;9576;47.792;9.628;2023-11-21T08:51:44;7.50;99.90
18888;DHT22;9576;47.792;9.628;2023-11-21T08:54:46;7.50;99.90
18888;DHT22;9576;47.792;9.628;2023-11-21T08:57:48;7.50;99.90
18888;DHT22;9576;47.792;9.628;2023-11-21T09:00:51;7.50;99.90
18888;DHT22;9576;47.792;9.628;2023-11-21T09:03:53;7.60;99.90
18888;DHT22;9576;47.792;9.628;2023-11-21T09:06:55;7.60;99.90
18888;DHT22;9576;47.792;9.628;2023-11-21T09:09:56;7.60;99.90
18888;DHT22;9576;47.792;9.628;2023-11-21T09:12:59;7.60;99.90
18888;DHT22;9576;47.792;9.628;2023-11-21T09:16:02;7.80;99.90
18888;DHT22;9576;47.792;9.628;2023-11-21T09:19:04;7.90;99.90
18888;DHT22;9576;47.792;9.628;2023-11-21T09:22:06;8.10;99.90
18888;DHT22;9576;47.792;9.628;2023-11-21T09:25:08;8.20;99.90
18888;DHT22;9576;47.792;9.628;2023-11-21T09:28:10;8.30;99.90
18888;DHT22;9576;47.792;9.628;2023-11-21T09:31:13;8.50;99.90
18888;DHT22;9576;47.792;9.628;2023-11-21T09:34:16;8.70;99.90
18888;DHT22;9576;47.792;9.628;2023-11-21T09:37:18;8.70;99.90
18888;DHT22;9576;47.792;9.628;2023-11-21T09:40:20;8.70;99.90
18888;DHT22;9576;47.792;9.628;2023-11-21T09:43:22;8.60;99.90
18888;DHT22;9576;47.792;9.628;2023-11-21T09:46:28;8.70;99.90
18888;DHT22;9576;47.792;9.628;2023-11-21T09:49:30;8.70;99.90
18888;DHT22;9576;47.792;9.628;2023-11-21T09:52:38;8.70;99.90
18888;DHT22;9576;47.792;9.628;2023-11-21T09:55:43;8.70;99.90
18888;DHT22;9576;47.792;9.628;2023-11-21T09:58:45;8.80;99.90
18888;DHT22;9576;47.792;9.628;2023-11-21T10:01:48;8.70;99.90
18888;DHT22;9576;47.792;9.628;2023-11-21T10:04:50;8.70;99.90
18888;DHT22;9576;47.792;9.628;2023-11-21T10:07:52;8.70;99.90
18888;DHT22;9576;47.792;9.628;2023-11-21T10:10:55;8.60;99.90
18888;DHT22;9576;47.792;9.628;2023-11-21T10:13:57;8.70;99.90
18888;DHT22;9576;47.792;9.628;2023-11-21T10:17:02;8.70;99.90
18888;DHT22;9576;47.792;9.628;2023-11-21T10:20:04;8.80;99.90
18888;DHT22;9576;47.792;9.628;2023-11-21T10:23:12;8.80;99.90
18888;DHT22;9576;47.792;9.628;2023-11-21T10:26:15;8.90;99.90
18888;DHT22;9576;47.792;9.628;2023-11-21T10:29:17;9.10;99.90
18888;DHT22;9576;47.792;9.628;2023-11-21T10:32:21;9.30;99.90
18888;DHT22;9576;47.792;9.628;2023-11-21T10:35:24;9.50;99.90
18888;DHT22;9576;47.792;9.628;2023-11-21T10:38:26;9.70;99.90
18888;DHT22;9576;47.792;9.628;2023-11-21T10:41:29;10.00;99.90
18888;DHT22;9576;47.792;9.628;2023-11-21T10:44:30;10.10;99.90
18888;DHT22;9576;47.792;9.628;2023-11-21T10:47:34;10.00;99.90
18888;DHT22;9576;47.792;9.628;2023-11-21T10:50:37;10.00;99.90
18888;DHT22;9576;47.792;9.628;2023-11-21T10:53:40;9.80;99.90
18888;DHT22;9576;47.792;9.628;2023-11-21T10:56:42;9.60;99.90
18888;DHT22;9576;47.792;9.628;2023-11-21T10:59:46;9.60;99.90
18888;DHT22;9576;47.792;9.628;2023-11-21T11:02:51;9.60;99.90
18888;DHT22;9576;47.792;9.628;2023-11-21T11:05:53;9.60;99.90
18888;DHT22;9576;47.792;9.628;2023-11-21T11:08:56;9.70;99.90
18888;DHT22;9576;47.792;9.628;2023-11-21T11:11:58;9.70;99.90
18888;DHT22;9576;47.792;9.628;2023-11-21T11:15:00;9.80;99.90
18888;DHT22;9576;47.792;9.628;2023-11-21T11:18:04;9.90;99.90
18888;DHT22;9576;47.792;9.628;2023-11-21T11:21:07;9.90;99.90
18888;DHT22;9576;47.792;9.628;2023-11-21T11:24:27;9.90;99.90
18888;DHT22;9576;47.792;9.628;2023-11-21T11:27:40;9.90;99.90
18888;DHT22;9576;47.792;9.628;2023-11-21T11:30:49;9.90;99.90
18888;DHT22;9576;47.792;9.628;2023-11-21T11:33:56;10.00;99.90
18888;DHT22;9576;47.792;9.628;2023-11-21T11:37:00;10.10;99.90
18888;DHT22;9576;47.792;9.628;2023-11-21T11:40:05;10.30;99.90
18888;DHT22;9576;47.792;9.628;2023-11-21T11:43:07;10.50;99.90
18888;DHT22;9576;47.792;9.628;2023-11-21T11:46:10;10.70;99.90
18888;DHT22;9576;47.792;9.628;2023-11-21T11:49:24;10.70;99.90
18888;DHT22;9576;47.792;9.628;2023-11-21T11:52:33;10.50;99.90
18888;DHT22;9576;47.792;9.628;2023-11-21T11:55:35;10.50;99.90
18888;DHT22;9576;47.792;9.628;2023-11-21T11:58:37;10.40;99.90
18888;DHT22;9576;47.792;9.628;2023-11-21T12:01:39;10.30;99.90
18888;DHT22;9576;47.792;9.628;2023-11-21T12:04:48;10.40;99.90
18888;DHT22;9576;47.792;9.628;2023-11-21T12:07:50;10.40;99.90
18888;DHT22;9576;47.792;9.628;2023-11-21T12:10:54;10.30;99.90
18888;DHT22;9576;47.792;9.628;2023-11-21T12:13:57;10.20;99.90
18888;DHT22;9576;47.792;9.628;2023-11-21T12:17:00;10.30;99.90
18888;DHT22;9576;47.792;9.628;2023-11-21T12:20:04;10.30;99.90
18888;DHT22;9576;47.792;9.628;2023-11-21T12:23:14;10.30;99.90
18888;DHT22;9576;47.792;9.628;2023-11-21T12:26:17;10.30;99.90
18888;DHT22;9576;47.792;9.628;2023-11-21T12:29:19;10.30;99.90
18888;DHT22;9576;47.792;9.628;2023-11-21T12:32:21;10.20;99.90
18888;DHT22;9576;47.792;9.628;2023-11-21T12:35:25;10.10;99.90
18888;DHT22;9576;47.792;9.628;2023-11-21T12:38:33;10.00;99.90
18888;DHT22;9576;47.792;9.628;2023-11-21T12:41:35;10.20;99.90
18888;DHT22;9576;47.792;9.628;2023-11-21T12:44:37;10.80;99.90
18888;DHT22;9576;47.792;9.628;2023-11-21T12:47:42;11.10;99.90
18888;DHT22;9576;47.792;9.628;2023-11-21T12:50:46;11.10;99.90
18888;DHT22;9576;47.792;9.628;2023-11-21T12:53:53;11.20;99.90
18888;DHT22;9576;47.792;9.628;2023-11-21T12:56:59;11.30;99.90
18888;DHT22;9576;47.792;9.628;2023-11-21T13:00:02;11.90;99.90
18888;DHT22;9576;47.792;9.628;2023-11-21T13:03:11;12.50;99.90
18888;DHT22;9576;47.792;9.628;2023-11-21T13:06:18;13.00;99.90
18888;DHT22;9576;47.792;9.628;2023-11-21T13:09:25;13.50;99.90
18888;DHT22;9576;47.792;9.628;2023-11-21T13:12:27;14.00;99.90
18888;DHT22;9576;47.792;9.628;2023-11-21T13:15:29;14.50;99.90
18888;DHT22;9576;47.792;9.628;2023-11-21T13:18:31;15.10;99.90
18888;DHT22;9576;47.792;9.628;2023-11-21T13:21:35;15.50;99.90
18888;DHT22;9576;47.792;9.628;2023-11-21T13:24:37;15.30;99.90
18888;DHT22;9576;47.792;9.628;2023-11-21T13:27:38;15.00;99.90
18888;DHT22;9576;47.792;9.628;2023-11-21T13:30:41;14.40;99.90
18888;DHT22;9576;47.792;9.628;2023-11-21T13:33:45;13.60;99.90
18888;DHT22;9576;47.792;9.628;2023-11-21T13:36:52;13.00;99.90
18888;DHT22;9576;47.792;9.628;2023-11-21T13:39:59;12.60;99.90
18888;DHT22;9576;47.792;9.628;2023-11-21T13:43:04;12.10;99.90
18888;DHT22;9576;47.792;9.628;2023-11-21T13:46:06;11.80;99.90
18888;DHT22;9576;47.792;9.628;2023-11-21T13:49:13;11.60;99.90
18888;DHT22;9576;47.792;9.628;2023-11-21T13:52:18;11.50;99.90
18888;DHT22;9576;47.792;9.628;2023-11-21T13:55:23;11.30;99.90
18888;DHT22;9576;47.792;9.628;2023-11-21T13:58:25;11.10;99.90
18888;DHT22;9576;47.792;9.628;2023-11-21T14:01:40;10.50;99.90
18888;DHT22;9576;47.792;9.628;2023-11-21T14:04:55;9.90;99.90
18888;DHT22;9576;47.792;9.628;2023-11-21T14:08:01;9.30;99.90
18888;DHT22;9576;47.792;9.628;2023-11-21T14:11:05;9.10;99.90
18888;DHT22;9576;47.792;9.628;2023-11-21T14:14:07;8.90;99.90
18888;DHT22;9576;47.792;9.628;2023-11-21T14:17:10;8.80;99.90
18888;DHT22;9576;47.792;9.628;2023-11-21T14:20:12;8.70;99.90
18888;DHT22;9576;47.792;9.628;2023-11-21T14:23:17;8.70;99.90
18888;DHT22;9576;47.792;9.628;2023-11-21T14:26:21;8.50;99.90
18888;DHT22;9576;47.792;9.628;2023-11-21T14:29:25;8.30;99.90
18888;DHT22;9576;47.792;9.628;2023-11-21T14:32:28;8.30;99.90
18888;DHT22;9576;47.792;9.628;2023-11-21T14:35:30;8.30;99.90
18888;DHT22;9576;47.792;9.628;2023-11-21T14:38:34;8.30;99.90
18888;DHT22;9576;47.792;9.628;2023-11-21T14:41:36;8.30;99.90
18888;DHT22;9576;47.792;9.628;2023-11-21T14:44:39;8.30;99.90
18888;DHT22;9576;47.792;9.628;2023-11-21T14:47:42;8.20;99.90
18888;DHT22;9576;47.792;9.628;2023-11-21T14:50:49;8.20;99.90
18888;DHT22;9576;47.792;9.628;2023-11-21T14:54:14;8.30;99.90
18888;DHT22;9576;47.792;9.628;2023-11-21T14:57:23;8.40;99.90
18888;DHT22;9576;47.792;9.628;2023-11-21T15:00:27;8.40;99.90
18888;DHT22;9576;47.792;9.628;2023-11-21T15:03:44;8.50;99.90
18888;DHT22;9576;47.792;9.628;2023-11-21T15:06:50;8.40;99.90
18888;DHT22;9576;47.792;9.628;2023-11-21T15:09:55;8.40;99.90
18888;DHT22;9576;47.792;9.628;2023-11-21T15:12:57;8.40;99.90
18888;DHT22;9576;47.792;9.628;2023-11-21T15:15:59;8.20;99.90
18888;DHT22;9576;47.792;9.628;2023-11-21T15:19:08;8.00;99.90
18888;DHT22;9576;47.792;9.628;2023-11-21T15:22:12;8.00;99.90
18888;DHT22;9576;47.792;9.628;2023-11-21T15:25:17;8.10;99.90
18888;DHT22;9576;47.792;9.628;2023-11-21T15:28:19;8.10;99.90
18888;DHT22;9576;47.792;9.628;2023-11-21T15:31:21;8.10;99.90
18888;DHT22;9576;47.792;9.628;2023-11-21T15:34:25;8.20;99.90
18888;DHT22;9576;47.792;9.628;2023-11-21T15:37:29;8.20;99.90
18888;DHT22;9576;47.792;9.628;2023-11-21T15:40:32;8.20;99.90
18888;DHT22;9576;47.792;9.628;2023-11-21T15:43:34;8.20;99.90
18888;DHT22;9576;47.792;9.628;2023-11-21T15:46:36;8.10;99.90
18888;DHT22;9576;47.792;9.628;2023-11-21T15:49:39;8.10;99.90
18888;DHT22;9576;47.792;9.628;2023-11-21T15:52:42;8.10;99.90
18888;DHT22;9576;47.792;9.628;2023-11-21T15:55:47;8.10;99.90
18888;DHT22;9576;47.792;9.628;2023-11-21T15:58:49;8.10;99.90
18888;DHT22;9576;47.792;9.628;2023-11-21T16:01:52;8.10;99.90
18888;DHT22;9576;47.792;9.628;2023-11-21T16:04:56;7.90;99.90
18888;DHT22;9576;47.792;9.628;2023-11-21T16:07:58;7.70;99.90
18888;DHT22;9576;47.792;9.628;2023-11-21T16:11:01;7.40;99.90
18888;DHT22;9576;47.792;9.628;2023-11-21T16:14:04;7.50;99.90
18888;DHT22;9576;47.792;9.628;2023-11-21T16:17:06;7.40;99.90
18888;DHT22;9576;47.792;9.628;2023-11-21T16:20:08;7.30;99.90
18888;DHT22;9576;47.792;9.628;2023-11-21T16:23:13;7.20;99.90
18888;DHT22;9576;47.792;9.628;2023-11-21T16:26:18;7.30;99.90
18888;DHT22;9576;47.792;9.628;2023-11-21T16:29:19;7.30;99.90
18888;DHT22;9576;47.792;9.628;2023-11-21T16:32:21;7.40;99.90
18888;DHT22;9576;47.792;9.628;2023-11-21T16:35:23;7.40;99.90
18888;DHT22;9576;47.792;9.628;2023-11-21T16:38:25;7.50;99.90
18888;DHT22;9576;47.792;9.628;2023-11-21T16:41:28;7.50;99.90
18888;DHT22;9576;47.792;9.628;2023-11-21T16:44:30;7.60;99.90
18888;DHT22;9576;47.792;9.628;2023-11-21T16:47:32;7.70;99.90
18888;DHT22;9576;47.792;9.628;2023-11-21T16:50:34;7.70;99.90
18888;DHT22;9576;47.792;9.628;2023-11-21T16:53:35;7.70;99.90
18888;DHT22;9576;47.792;9.628;2023-11-21T16:56:41;7.70;99.90
18888;DHT22;9576;47.792;9.628;2023-11-21T16:59:44;7.70;99.90
18888;DHT22;9576;47.792;9.628;2023-11-21T17:02:50;7.70;99.90
18888;DHT22;9576;47.792;9.628;2023-11-21T17:05:52;7.70;99.90
18888;DHT22;9576;47.792;9.628;2023-11-21T17:08:54;7.70;99.90
18888;DHT22;9576;47.792;9.628;2023-11-21T17:11:58;7.80;99.90
18888;DHT22;9576;47.792;9.628;2023-11-21T17:15:00;7.80;99.90
18888;DHT22;9576;47.792;9.628;2023-11-21T17:18:03;7.80;99.90
18888;DHT22;9576;47.792;9.628;2023-11-21T17:21:06;7.80;99.90
18888;DHT22;9576;47.792;9.628;2023-11-21T17:24:09;7.80;99.90
18888;DHT22;9576;47.792;9.628;2023-11-21T17:27:12;7.80;99.90
18888;DHT22;9576;47.792;9.628;2023-11-21T17:30:14;7.80;99.90
18888;DHT22;9576;47.792;9.628;2023-11-21T17:33:16;7.80;99.90
18888;DHT22;9576;47.792;9.628;2023-11-21T17:36:18;7.80;99.90
18888;DHT22;9576;47.792;9.628;2023-11-21T17:39:20;7.80;99.90
18888;DHT22;9576;47.792;9.628;2023-11-21T17:42:23;7.70;99.90
18888;DHT22;9576;47.792;9.628;2023-11-21T17:45:25;7.60;99.90
18888;DHT22;9576;47.792;9.628;2023-11-21T17:48:27;7.70;99.90
18888;DHT22;9576;47.792;9.628;2023-11-21T17:51:31;7.70;99.90
18888;DHT22;9576;47.792;9.628;2023-11-21T17:54:32;7.70;99.90
18888;DHT22;9576;47.792;9.628;2023-11-21T17:57:36;7.70;99.90
18888;DHT22;9576;47.792;9.628;2023-11-21T18:00:39;7.60;99.90
18888;DHT22;9576;47.792;9.628;2023-11-21T18:03:41;7.60;99.90
18888;DHT22;9576;47.792;9.628;2023-11-21T18:06:43;7.60;99.90
18888;DHT22;9576;47.792;9.628;2023-11-21T18:09:45;7.60;99.90
18888;DHT22;9576;47.792;9.628;2023-11-21T18:12:48;7.50;99.90
18888;DHT22;9576;47.792;9.628;2023-11-21T18:15:50;7.50;99.90
18888;DHT22;9576;47.792;9.628;2023-11-21T18:18:51;7.40;99.90
18888;DHT22;9576;47.792;9.628;2023-11-21T18:21:53;7.30;99.90
18888;DHT22;9576;47.792;9.628;2023-11-21T18:24:55;7.20;99.90
18888;DHT22;9576;47.792;9.628;2023-11-21T18:27:59;7.20;99.90
18888;DHT22;9576;47.792;9.628;2023-11-21T18:31:00;7.20;99.90
18888;DHT22;9576;47.792;9.628;2023-11-21T18:34:06;7.20;99.90
18888;DHT22;9576;47.792;9.628;2023-11-21T18:37:09;7.10;99.90
18888;DHT22;9576;47.792;9.628;2023-11-21T18:40:11;7.10;99.90
18888;DHT22;9576;47.792;9.628;2023-11-21T18:43:14;7.10;99.90
18888;DHT22;9576;47.792;9.628;2023-11-21T18:46:16;7.00;99.90
18888;DHT22;9576;47.792;9.628;2023-11-21T18:49:18;7.00;99.90
18888;DHT22;9576;47.792;9.628;2023-11-21T18:52:20;7.00;99.90
18888;DHT22;9576;47.792;9.628;2023-11-21T18:55:24;7.00;99.90
18888;DHT22;9576;47.792;9.628;2023-11-21T18:58:27;7.00;99.90
18888;DHT22;9576;47.792;9.628;2023-11-21T19:01:29;7.00;99.90
18888;DHT22;9576;47.792;9.628;2023-11-21T19:04:31;7.00;99.90
18888;DHT22;9576;47.792;9.628;2023-11-21T19:07:33;7.00;99.90
18888;DHT22;9576;47.792;9.628;2023-11-21T19:10:36;7.10;99.90
18888;DHT22;9576;47.792;9.628;2023-11-21T19:13:40;7.10;99.90
18888;DHT22;9576;47.792;9.628;2023-11-21T19:16:41;7.20;99.90
18888;DHT22;9576;47.792;9.628;2023-11-21T19:19:46;7.20;99.90
18888;DHT22;9576;47.792;9.628;2023-11-21T19:22:48;7.20;99.90
18888;DHT22;9576;47.792;9.628;2023-11-21T19:25:50;7.20;99.90
18888;DHT22;9576;47.792;9.628;2023-11-21T19:28:53;7.30;99.90
18888;DHT22;9576;47.792;9.628;2023-11-21T19:31:55;7.30;99.90
18888;DHT22;9576;47.792;9.628;2023-11-21T19:34:57;7.30;99.90
18888;DHT22;9576;47.792;9.628;2023-11-21T19:37:59;7.30;99.90
18888;DHT22;9576;47.792;9.628;2023-11-21T19:41:01;7.30;99.90
18888;DHT22;9576;47.792;9.628;2023-11-21T19:44:05;7.20;99.90
18888;DHT22;9576;47.792;9.628;2023-11-21T19:47:07;7.30;99.90
18888;DHT22;9576;47.792;9.628;2023-11-21T19:50:09;7.30;99.90
18888;DHT22;9576;47.792;9.628;2023-11-21T19:53:11;7.30;99.90